sensor_id;sensor_type;location;lat;lon;timestamp;temperature;humidity
22321;DHT22;11328;53.928;18.522;2022-10-26T00:01:11;11.40;99.90
22321;DHT22;11328;53.928;18.522;2022-10-26T00:03:41;11.30;99.90
22321;DHT22;11328;53.928;18.522;2022-10-26T00:06:14;11.30;99.90
22321;DHT22;11328;53.928;18.522;2022-10-26T00:08:43;11.30;99.90
22321;DHT22;11328;53.928;18.522;2022-10-26T00:11:12;11.20;99.90
22321;DHT22;11328;53.928;18.522;2022-10-26T00:13:40;11.30;99.90
22321;DHT22;11328;53.928;18.522;2022-10-26T00:16:25;11.20;99.90
22321;DHT22;11328;53.928;18.522;2022-10-26T00:18:53;11.20;99.90
22321;DHT22;11328;53.928;18.522;2022-10-26T00:21:20;11.20;99.90
22321;DHT22;11328;53.928;18.522;2022-10-26T00:23:47;11.10;99.90
22321;DHT22;11328;53.928;18.522;2022-10-26T00:26:13;11.10;99.90
22321;DHT22;11328;53.928;18.522;2022-10-26T00:28:40;11.10;99.90
22321;DHT22;11328;53.928;18.522;2022-10-26T00:31:12;11.10;99.90
22321;DHT22;11328;53.928;18.522;2022-10-26T00:33:42;11.10;99.90
22321;DHT22;11328;53.928;18.522;2022-10-26T00:36:09;11.00;99.90
22321;DHT22;11328;53.928;18.522;2022-10-26T00:38:39;11.10;99.90
22321;DHT22;11328;53.928;18.522;2022-10-26T00:41:14;11.10;99.90
22321;DHT22;11328;53.928;18.522;2022-10-26T00:43:41;11.10;99.90
22321;DHT22;11328;53.928;18.522;2022-10-26T00:46:12;11.10;99.90
22321;DHT22;11328;53.928;18.522;2022-10-26T00:48:46;11.10;99.90
22321;DHT22;11328;53.928;18.522;2022-10-26T00:53:53;11.10;99.90
22321;DHT22;11328;53.928;18.522;2022-10-26T00:56:21;11.10;99.90
22321;DHT22;11328;53.928;18.522;2022-10-26T00:58:49;11.10;99.90
22321;DHT22;11328;53.928;18.522;2022-10-26T01:01:17;11.10;99.90
22321;DHT22;11328;53.928;18.522;2022-10-26T01:03:44;11.20;99.90
22321;DHT22;11328;53.928;18.522;2022-10-26T01:06:13;11.20;99.90
22321;DHT22;11328;53.928;18.522;2022-10-26T01:08:42;11.20;99.90
22321;DHT22;11328;53.928;18.522;2022-10-26T01:11:09;11.20;99.90
22321;DHT22;11328;53.928;18.522;2022-10-26T01:13:38;11.30;99.90
22321;DHT22;11328;53.928;18.522;2022-10-26T01:22:06;11.40;99.90
22321;DHT22;11328;53.928;18.522;2022-10-26T01:25:05;11.30;99.90
22321;DHT22;11328;53.928;18.522;2022-10-26T01:27:44;11.30;99.90
22321;DHT22;11328;53.928;18.522;2022-10-26T01:30:34;11.30;99.90
22321;DHT22;11328;53.928;18.522;2022-10-26T01:36:18;11.40;99.90
22321;DHT22;11328;53.928;18.522;2022-10-26T01:39:15;11.40;99.90
22321;DHT22;11328;53.928;18.522;2022-10-26T01:41:49;11.40;99.90
22321;DHT22;11328;53.928;18.522;2022-10-26T01:44:20;11.40;99.90
22321;DHT22;11328;53.928;18.522;2022-10-26T01:47:13;11.40;99.90
22321;DHT22;11328;53.928;18.522;2022-10-26T01:49:48;11.40;99.90
22321;DHT22;11328;53.928;18.522;2022-10-26T01:52:19;11.50;99.90
22321;DHT22;11328;53.928;18.522;2022-10-26T01:54:47;11.50;99.90
22321;DHT22;11328;53.928;18.522;2022-10-26T01:57:17;11.50;99.90
22321;DHT22;11328;53.928;18.522;2022-10-26T02:00:07;11.50;99.90
22321;DHT22;11328;53.928;18.522;2022-10-26T02:08:35;11.70;99.90
22321;DHT22;11328;53.928;18.522;2022-10-26T02:11:37;11.70;99.90
22321;DHT22;11328;53.928;18.522;2022-10-26T02:14:31;11.70;99.90
22321;DHT22;11328;53.928;18.522;2022-10-26T02:17:28;11.70;99.90
22321;DHT22;11328;53.928;18.522;2022-10-26T02:20:04;11.80;99.90
22321;DHT22;11328;53.928;18.522;2022-10-26T02:22:38;11.80;99.90
22321;DHT22;11328;53.928;18.522;2022-10-26T02:25:10;11.80;99.90
22321;DHT22;11328;53.928;18.522;2022-10-26T02:27:46;11.70;99.90
22321;DHT22;11328;53.928;18.522;2022-10-26T02:30:18;11.80;99.90
22321;DHT22;11328;53.928;18.522;2022-10-26T02:32:49;11.80;99.90
22321;DHT22;11328;53.928;18.522;2022-10-26T02:35:22;11.80;99.90
22321;DHT22;11328;53.928;18.522;2022-10-26T02:37:55;11.80;99.90
22321;DHT22;11328;53.928;18.522;2022-10-26T02:40:27;11.90;99.90
22321;DHT22;11328;53.928;18.522;2022-10-26T02:42:58;11.90;99.90
22321;DHT22;11328;53.928;18.522;2022-10-26T02:45:34;11.90;99.90
22321;DHT22;11328;53.928;18.522;2022-10-26T02:48:06;11.90;99.90
22321;DHT22;11328;53.928;18.522;2022-10-26T02:50:49;11.90;99.90
22321;DHT22;11328;53.928;18.522;2022-10-26T02:53:53;11.90;99.90
22321;DHT22;11328;53.928;18.522;2022-10-26T02:56:32;12.10;99.90
22321;DHT22;11328;53.928;18.522;2022-10-26T02:59:07;12.00;99.90
22321;DHT22;11328;53.928;18.522;2022-10-26T03:01:36;12.00;99.90
22321;DHT22;11328;53.928;18.522;2022-10-26T03:04:04;12.10;99.90
22321;DHT22;11328;53.928;18.522;2022-10-26T03:06:31;12.10;99.90
22321;DHT22;11328;53.928;18.522;2022-10-26T03:08:58;12.10;99.90
22321;DHT22;11328;53.928;18.522;2022-10-26T03:11:25;12.10;99.90
22321;DHT22;11328;53.928;18.522;2022-10-26T03:13:52;12.20;99.90
22321;DHT22;11328;53.928;18.522;2022-10-26T03:16:19;12.20;99.90
22321;DHT22;11328;53.928;18.522;2022-10-26T03:18:46;12.20;99.90
22321;DHT22;11328;53.928;18.522;2022-10-26T03:21:13;12.20;99.90
22321;DHT22;11328;53.928;18.522;2022-10-26T03:23:40;12.30;99.90
22321;DHT22;11328;53.928;18.522;2022-10-26T03:26:07;12.40;99.90
22321;DHT22;11328;53.928;18.522;2022-10-26T03:28:34;12.40;99.90
22321;DHT22;11328;53.928;18.522;2022-10-26T03:31:02;12.30;99.90
22321;DHT22;11328;53.928;18.522;2022-10-26T03:33:29;12.30;99.90
22321;DHT22;11328;53.928;18.522;2022-10-26T03:35:56;12.30;99.90
22321;DHT22;11328;53.928;18.522;2022-10-26T03:38:23;12.30;99.90
22321;DHT22;11328;53.928;18.522;2022-10-26T03:40:51;12.30;99.90
22321;DHT22;11328;53.928;18.522;2022-10-26T03:43:18;12.30;99.90
22321;DHT22;11328;53.928;18.522;2022-10-26T03:45:44;12.40;99.90
22321;DHT22;11328;53.928;18.522;2022-10-26T03:48:12;12.40;99.90
22321;DHT22;11328;53.928;18.522;2022-10-26T03:50:40;12.30;99.90
22321;DHT22;11328;53.928;18.522;2022-10-26T03:53:07;12.40;99.90
22321;DHT22;11328;53.928;18.522;2022-10-26T03:55:34;12.30;99.90
22321;DHT22;11328;53.928;18.522;2022-10-26T03:58:01;12.30;99.90
22321;DHT22;11328;53.928;18.522;2022-10-26T04:00:28;12.30;99.90
22321;DHT22;11328;53.928;18.522;2022-10-26T04:02:58;12.30;99.90
22321;DHT22;11328;53.928;18.522;2022-10-26T04:05:27;12.20;99.90
22321;DHT22;11328;53.928;18.522;2022-10-26T04:07:56;12.30;99.90
22321;DHT22;11328;53.928;18.522;2022-10-26T04:10:26;12.20;99.90
22321;DHT22;11328;53.928;18.522;2022-10-26T04:12:54;12.30;99.90
22321;DHT22;11328;53.928;18.522;2022-10-26T04:15:22;12.30;99.90
22321;DHT22;11328;53.928;18.522;2022-10-26T04:17:55;12.30;99.90
22321;DHT22;11328;53.928;18.522;2022-10-26T04:20:27;12.30;99.90
22321;DHT22;11328;53.928;18.522;2022-10-26T04:22:59;12.20;99.90
22321;DHT22;11328;53.928;18.522;2022-10-26T04:25:28;12.30;99.90
22321;DHT22;11328;53.928;18.522;2022-10-26T04:28:00;12.30;99.90
22321;DHT22;11328;53.928;18.522;2022-10-26T04:30:28;12.30;99.90
22321;DHT22;11328;53.928;18.522;2022-10-26T04:32:56;12.30;99.90
22321;DHT22;11328;53.928;18.522;2022-10-26T04:35:23;12.40;99.90
22321;DHT22;11328;53.928;18.522;2022-10-26T04:37:50;12.40;99.90
22321;DHT22;11328;53.928;18.522;2022-10-26T04:40:17;12.30;99.90
22321;DHT22;11328;53.928;18.522;2022-10-26T04:42:45;12.40;99.90
22321;DHT22;11328;53.928;18.522;2022-10-26T04:45:14;12.30;99.90
22321;DHT22;11328;53.928;18.522;2022-10-26T04:47:42;12.30;99.90
22321;DHT22;11328;53.928;18.522;2022-10-26T04:50:11;12.30;99.90
22321;DHT22;11328;53.928;18.522;2022-10-26T04:52:39;12.40;99.90
22321;DHT22;11328;53.928;18.522;2022-10-26T04:55:06;12.40;99.90
22321;DHT22;11328;53.928;18.522;2022-10-26T04:57:34;12.30;99.90
22321;DHT22;11328;53.928;18.522;2022-10-26T05:00:03;12.30;99.90
22321;DHT22;11328;53.928;18.522;2022-10-26T05:02:30;12.30;99.90
22321;DHT22;11328;53.928;18.522;2022-10-26T05:04:57;12.40;99.90
22321;DHT22;11328;53.928;18.522;2022-10-26T05:07:24;12.30;99.90
22321;DHT22;11328;53.928;18.522;2022-10-26T05:09:51;12.40;99.90
22321;DHT22;11328;53.928;18.522;2022-10-26T05:12:18;12.40;99.90
22321;DHT22;11328;53.928;18.522;2022-10-26T05:14:45;12.30;99.90
22321;DHT22;11328;53.928;18.522;2022-10-26T05:17:12;12.30;99.90
22321;DHT22;11328;53.928;18.522;2022-10-26T05:19:39;12.30;99.90
22321;DHT22;11328;53.928;18.522;2022-10-26T05:22:06;12.20;99.90
22321;DHT22;11328;53.928;18.522;2022-10-26T05:24:33;12.20;99.90
22321;DHT22;11328;53.928;18.522;2022-10-26T05:27:00;12.20;99.90
22321;DHT22;11328;53.928;18.522;2022-10-26T05:29:27;12.10;99.90
22321;DHT22;11328;53.928;18.522;2022-10-26T05:31:54;12.20;99.90
22321;DHT22;11328;53.928;18.522;2022-10-26T05:34:21;12.20;99.90
22321;DHT22;11328;53.928;18.522;2022-10-26T05:36:51;12.20;99.90
22321;DHT22;11328;53.928;18.522;2022-10-26T05:39:19;12.20;99.90
22321;DHT22;11328;53.928;18.522;2022-10-26T05:41:46;12.20;99.90
22321;DHT22;11328;53.928;18.522;2022-10-26T05:44:13;12.30;99.90
22321;DHT22;11328;53.928;18.522;2022-10-26T05:46:41;12.30;99.90
22321;DHT22;11328;53.928;18.522;2022-10-26T05:49:08;12.30;99.90
22321;DHT22;11328;53.928;18.522;2022-10-26T05:51:35;12.30;99.90
22321;DHT22;11328;53.928;18.522;2022-10-26T05:54:02;12.30;99.90
22321;DHT22;11328;53.928;18.522;2022-10-26T05:56:38;12.30;99.90
22321;DHT22;11328;53.928;18.522;2022-10-26T05:59:13;12.40;99.90
22321;DHT22;11328;53.928;18.522;2022-10-26T06:04:43;12.40;99.90
22321;DHT22;11328;53.928;18.522;2022-10-26T06:07:16;12.40;99.90
22321;DHT22;11328;53.928;18.522;2022-10-26T06:09:48;12.40;99.90
22321;DHT22;11328;53.928;18.522;2022-10-26T06:12:15;12.40;99.90
22321;DHT22;11328;53.928;18.522;2022-10-26T06:14:45;12.40;99.90
22321;DHT22;11328;53.928;18.522;2022-10-26T06:31:48;12.50;99.90
22321;DHT22;11328;53.928;18.522;2022-10-26T06:34:23;12.60;99.90
22321;DHT22;11328;53.928;18.522;2022-10-26T06:36:54;12.60;99.90
22321;DHT22;11328;53.928;18.522;2022-10-26T06:39:25;12.70;99.90
22321;DHT22;11328;53.928;18.522;2022-10-26T06:41:56;12.80;99.90
22321;DHT22;11328;53.928;18.522;2022-10-26T06:44:24;12.80;99.90
22321;DHT22;11328;53.928;18.522;2022-10-26T06:47:09;12.80;99.90
22321;DHT22;11328;53.928;18.522;2022-10-26T06:50:08;12.80;99.90
22321;DHT22;11328;53.928;18.522;2022-10-26T06:52:54;12.80;99.90
22321;DHT22;11328;53.928;18.522;2022-10-26T06:55:36;12.90;99.90
22321;DHT22;11328;53.928;18.522;2022-10-26T06:58:14;12.90;99.90
22321;DHT22;11328;53.928;18.522;2022-10-26T07:00:47;12.90;99.90
22321;DHT22;11328;53.928;18.522;2022-10-26T07:03:16;12.90;99.90
22321;DHT22;11328;53.928;18.522;2022-10-26T07:05:44;13.00;99.90
22321;DHT22;11328;53.928;18.522;2022-10-26T07:08:11;13.00;99.90
22321;DHT22;11328;53.928;18.522;2022-10-26T07:10:39;13.10;99.90
22321;DHT22;11328;53.928;18.522;2022-10-26T07:13:08;13.00;99.90
22321;DHT22;11328;53.928;18.522;2022-10-26T07:15:37;13.10;99.90
22321;DHT22;11328;53.928;18.522;2022-10-26T07:18:06;13.20;99.90
22321;DHT22;11328;53.928;18.522;2022-10-26T07:20:38;13.30;99.90
22321;DHT22;11328;53.928;18.522;2022-10-26T07:23:07;13.40;99.90
22321;DHT22;11328;53.928;18.522;2022-10-26T07:25:38;13.60;99.90
22321;DHT22;11328;53.928;18.522;2022-10-26T07:28:07;13.70;99.90
22321;DHT22;11328;53.928;18.522;2022-10-26T07:30:37;13.70;99.90
22321;DHT22;11328;53.928;18.522;2022-10-26T07:33:10;13.70;99.90
22321;DHT22;11328;53.928;18.522;2022-10-26T07:35:39;13.70;99.90
22321;DHT22;11328;53.928;18.522;2022-10-26T07:38:11;13.70;99.90
22321;DHT22;11328;53.928;18.522;2022-10-26T07:40:39;13.80;99.90
22321;DHT22;11328;53.928;18.522;2022-10-26T07:43:05;13.80;99.90
22321;DHT22;11328;53.928;18.522;2022-10-26T07:45:32;13.80;99.90
22321;DHT22;11328;53.928;18.522;2022-10-26T07:47:59;13.90;99.90
22321;DHT22;11328;53.928;18.522;2022-10-26T07:50:27;13.90;99.90
22321;DHT22;11328;53.928;18.522;2022-10-26T07:52:54;13.90;99.90
22321;DHT22;11328;53.928;18.522;2022-10-26T07:55:21;13.90;99.90
22321;DHT22;11328;53.928;18.522;2022-10-26T07:57:48;13.90;99.90
22321;DHT22;11328;53.928;18.522;2022-10-26T08:00:20;14.00;99.90
22321;DHT22;11328;53.928;18.522;2022-10-26T08:02:48;14.00;99.90
22321;DHT22;11328;53.928;18.522;2022-10-26T08:05:15;13.90;99.90
22321;DHT22;11328;53.928;18.522;2022-10-26T08:07:43;14.00;99.90
22321;DHT22;11328;53.928;18.522;2022-10-26T08:10:14;14.10;99.90
22321;DHT22;11328;53.928;18.522;2022-10-26T08:12:42;14.10;99.90
22321;DHT22;11328;53.928;18.522;2022-10-26T08:15:10;14.00;99.90
22321;DHT22;11328;53.928;18.522;2022-10-26T08:17:37;14.00;99.90
22321;DHT22;11328;53.928;18.522;2022-10-26T08:20:04;14.10;99.90
22321;DHT22;11328;53.928;18.522;2022-10-26T08:22:32;14.10;99.90
22321;DHT22;11328;53.928;18.522;2022-10-26T08:24:58;14.10;99.90
22321;DHT22;11328;53.928;18.522;2022-10-26T08:27:25;14.10;99.90
22321;DHT22;11328;53.928;18.522;2022-10-26T08:29:52;14.10;99.90
22321;DHT22;11328;53.928;18.522;2022-10-26T08:32:19;14.20;99.90
22321;DHT22;11328;53.928;18.522;2022-10-26T08:34:46;14.20;99.90
22321;DHT22;11328;53.928;18.522;2022-10-26T08:37:13;14.30;99.90
22321;DHT22;11328;53.928;18.522;2022-10-26T08:39:40;14.40;99.90
22321;DHT22;11328;53.928;18.522;2022-10-26T08:42:21;14.50;99.90
22321;DHT22;11328;53.928;18.522;2022-10-26T08:44:56;14.60;99.90
22321;DHT22;11328;53.928;18.522;2022-10-26T08:47:36;14.40;99.90
22321;DHT22;11328;53.928;18.522;2022-10-26T08:50:13;14.50;99.90
22321;DHT22;11328;53.928;18.522;2022-10-26T08:53:41;14.50;99.90
22321;DHT22;11328;53.928;18.522;2022-10-26T08:56:22;14.40;99.90
22321;DHT22;11328;53.928;18.522;2022-10-26T08:58:54;14.40;99.90
22321;DHT22;11328;53.928;18.522;2022-10-26T09:01:24;14.40;99.90
22321;DHT22;11328;53.928;18.522;2022-10-26T09:03:51;14.40;99.90
22321;DHT22;11328;53.928;18.522;2022-10-26T09:12:04;14.80;99.90
22321;DHT22;11328;53.928;18.522;2022-10-26T09:14:46;14.80;99.90
22321;DHT22;11328;53.928;18.522;2022-10-26T09:26:04;14.80;99.90
22321;DHT22;11328;53.928;18.522;2022-10-26T09:28:40;14.90;99.90
22321;DHT22;11328;53.928;18.522;2022-10-26T09:31:15;15.00;99.90
22321;DHT22;11328;53.928;18.522;2022-10-26T09:33:43;15.20;99.90
22321;DHT22;11328;53.928;18.522;2022-10-26T09:36:16;15.10;99.90
22321;DHT22;11328;53.928;18.522;2022-10-26T09:38:57;15.00;99.90
22321;DHT22;11328;53.928;18.522;2022-10-26T09:41:39;15.10;99.90
22321;DHT22;11328;53.928;18.522;2022-10-26T09:44:27;15.10;99.90
22321;DHT22;11328;53.928;18.522;2022-10-26T09:49:54;15.10;99.90
22321;DHT22;11328;53.928;18.522;2022-10-26T09:52:24;15.20;99.90
22321;DHT22;11328;53.928;18.522;2022-10-26T09:54:51;15.30;99.90
22321;DHT22;11328;53.928;18.522;2022-10-26T09:57:19;15.20;99.90
22321;DHT22;11328;53.928;18.522;2022-10-26T09:59:46;15.20;99.90
22321;DHT22;11328;53.928;18.522;2022-10-26T10:08:19;15.30;99.90
22321;DHT22;11328;53.928;18.522;2022-10-26T10:10:53;15.40;99.90
22321;DHT22;11328;53.928;18.522;2022-10-26T10:13:28;15.40;99.90
22321;DHT22;11328;53.928;18.522;2022-10-26T10:18:56;15.60;99.90
22321;DHT22;11328;53.928;18.522;2022-10-26T10:21:43;15.60;99.90
22321;DHT22;11328;53.928;18.522;2022-10-26T10:24:23;15.40;99.90
22321;DHT22;11328;53.928;18.522;2022-10-26T10:26:58;15.30;99.90
22321;DHT22;11328;53.928;18.522;2022-10-26T10:29:31;15.20;99.90
22321;DHT22;11328;53.928;18.522;2022-10-26T10:32:14;15.30;99.90
22321;DHT22;11328;53.928;18.522;2022-10-26T10:35:27;15.20;99.90
22321;DHT22;11328;53.928;18.522;2022-10-26T10:37:56;15.20;99.90
22321;DHT22;11328;53.928;18.522;2022-10-26T10:40:28;15.20;99.90
22321;DHT22;11328;53.928;18.522;2022-10-26T10:43:09;15.30;99.90
22321;DHT22;11328;53.928;18.522;2022-10-26T10:45:39;15.30;99.90
22321;DHT22;11328;53.928;18.522;2022-10-26T10:53:20;15.30;99.90
22321;DHT22;11328;53.928;18.522;2022-10-26T11:02:54;15.10;99.90
22321;DHT22;11328;53.928;18.522;2022-10-26T11:08:50;15.20;99.90
22321;DHT22;11328;53.928;18.522;2022-10-26T11:11:35;15.30;99.90
22321;DHT22;11328;53.928;18.522;2022-10-26T11:14:24;15.20;99.90
22321;DHT22;11328;53.928;18.522;2022-10-26T11:17:12;15.20;99.90
22321;DHT22;11328;53.928;18.522;2022-10-26T11:20:11;15.20;99.90
22321;DHT22;11328;53.928;18.522;2022-10-26T11:23:08;15.00;99.90
22321;DHT22;11328;53.928;18.522;2022-10-26T11:25:45;14.90;99.90
22321;DHT22;11328;53.928;18.522;2022-10-26T11:31:34;15.10;99.90
22321;DHT22;11328;53.928;18.522;2022-10-26T11:34:59;15.00;99.90
22321;DHT22;11328;53.928;18.522;2022-10-26T11:43:16;15.20;99.90
22321;DHT22;11328;53.928;18.522;2022-10-26T11:46:09;15.20;99.90
22321;DHT22;11328;53.928;18.522;2022-10-26T11:49:20;15.20;99.90
22321;DHT22;11328;53.928;18.522;2022-10-26T11:51:58;15.30;99.90
22321;DHT22;11328;53.928;18.522;2022-10-26T11:54:47;15.20;99.90
22321;DHT22;11328;53.928;18.522;2022-10-26T11:57:18;15.20;99.90
22321;DHT22;11328;53.928;18.522;2022-10-26T11:59:57;15.30;99.90
22321;DHT22;11328;53.928;18.522;2022-10-26T12:02:27;15.40;99.90
22321;DHT22;11328;53.928;18.522;2022-10-26T12:08:02;15.30;99.90
22321;DHT22;11328;53.928;18.522;2022-10-26T12:10:37;15.30;99.90
22321;DHT22;11328;53.928;18.522;2022-10-26T12:15:53;15.40;99.90
22321;DHT22;11328;53.928;18.522;2022-10-26T12:18:57;15.40;99.90
22321;DHT22;11328;53.928;18.522;2022-10-26T12:21:30;15.40;99.90
22321;DHT22;11328;53.928;18.522;2022-10-26T12:24:00;15.40;99.90
22321;DHT22;11328;53.928;18.522;2022-10-26T12:26:58;15.40;99.90
22321;DHT22;11328;53.928;18.522;2022-10-26T12:29:28;15.50;99.90
22321;DHT22;11328;53.928;18.522;2022-10-26T12:31:56;15.40;99.90
22321;DHT22;11328;53.928;18.522;2022-10-26T12:37:18;15.50;99.90
22321;DHT22;11328;53.928;18.522;2022-10-26T12:39:50;15.50;99.90
22321;DHT22;11328;53.928;18.522;2022-10-26T12:58:51;15.90;99.90
22321;DHT22;11328;53.928;18.522;2022-10-26T13:03:47;15.80;99.90
22321;DHT22;11328;53.928;18.522;2022-10-26T13:10:04;15.80;99.90
22321;DHT22;11328;53.928;18.522;2022-10-26T13:12:58;15.80;99.90
22321;DHT22;11328;53.928;18.522;2022-10-26T13:15:32;15.80;99.90
22321;DHT22;11328;53.928;18.522;2022-10-26T13:18:15;15.70;99.90
22321;DHT22;11328;53.928;18.522;2022-10-26T13:23:44;15.70;99.90
22321;DHT22;11328;53.928;18.522;2022-10-26T13:26:16;15.60;99.90
22321;DHT22;11328;53.928;18.522;2022-10-26T13:29:02;15.50;99.90
22321;DHT22;11328;53.928;18.522;2022-10-26T13:34:00;15.40;99.90
22321;DHT22;11328;53.928;18.522;2022-10-26T13:36:44;15.50;99.90
22321;DHT22;11328;53.928;18.522;2022-10-26T13:39:17;15.50;99.90
22321;DHT22;11328;53.928;18.522;2022-10-26T13:41:50;15.40;99.90
22321;DHT22;11328;53.928;18.522;2022-10-26T13:44:38;15.50;99.90
22321;DHT22;11328;53.928;18.522;2022-10-26T13:47:21;15.40;99.90
22321;DHT22;11328;53.928;18.522;2022-10-26T13:49:55;15.50;99.90
22321;DHT22;11328;53.928;18.522;2022-10-26T13:52:37;15.60;99.90
22321;DHT22;11328;53.928;18.522;2022-10-26T13:55:35;15.60;99.90
22321;DHT22;11328;53.928;18.522;2022-10-26T14:01:14;15.80;99.90
22321;DHT22;11328;53.928;18.522;2022-10-26T14:03:43;15.90;99.90
22321;DHT22;11328;53.928;18.522;2022-10-26T14:06:38;15.90;99.90
22321;DHT22;11328;53.928;18.522;2022-10-26T14:09:15;15.90;99.90
22321;DHT22;11328;53.928;18.522;2022-10-26T14:11:52;15.90;99.90
22321;DHT22;11328;53.928;18.522;2022-10-26T14:14:36;15.80;99.90
22321;DHT22;11328;53.928;18.522;2022-10-26T14:17:04;15.80;99.90
22321;DHT22;11328;53.928;18.522;2022-10-26T14:19:36;15.80;99.90
22321;DHT22;11328;53.928;18.522;2022-10-26T14:22:06;15.70;99.90
22321;DHT22;11328;53.928;18.522;2022-10-26T14:24:37;15.70;99.90
22321;DHT22;11328;53.928;18.522;2022-10-26T14:27:19;15.70;99.90
22321;DHT22;11328;53.928;18.522;2022-10-26T14:29:52;15.70;99.90
22321;DHT22;11328;53.928;18.522;2022-10-26T14:32:40;15.50;99.90
22321;DHT22;11328;53.928;18.522;2022-10-26T14:35:14;15.50;99.90
22321;DHT22;11328;53.928;18.522;2022-10-26T14:37:53;15.40;99.90
22321;DHT22;11328;53.928;18.522;2022-10-26T14:40:32;15.30;99.90
22321;DHT22;11328;53.928;18.522;2022-10-26T14:43:02;15.20;99.90
22321;DHT22;11328;53.928;18.522;2022-10-26T14:45:34;15.20;99.90
22321;DHT22;11328;53.928;18.522;2022-10-26T14:48:30;15.10;99.90
22321;DHT22;11328;53.928;18.522;2022-10-26T14:51:14;15.10;99.90
22321;DHT22;11328;53.928;18.522;2022-10-26T14:53:51;15.10;99.90
22321;DHT22;11328;53.928;18.522;2022-10-26T14:56:55;15.10;99.90
22321;DHT22;11328;53.928;18.522;2022-10-26T14:59:25;15.10;99.90
22321;DHT22;11328;53.928;18.522;2022-10-26T15:02:18;15.00;99.90
22321;DHT22;11328;53.928;18.522;2022-10-26T15:05:02;15.00;99.90
22321;DHT22;11328;53.928;18.522;2022-10-26T15:07:43;14.90;99.90
22321;DHT22;11328;53.928;18.522;2022-10-26T15:13:31;14.80;99.90
22321;DHT22;11328;53.928;18.522;2022-10-26T15:16:21;14.70;99.90
22321;DHT22;11328;53.928;18.522;2022-10-26T15:19:14;14.70;99.90
22321;DHT22;11328;53.928;18.522;2022-10-26T15:21:50;14.70;99.90
22321;DHT22;11328;53.928;18.522;2022-10-26T15:24:30;14.70;99.90
22321;DHT22;11328;53.928;18.522;2022-10-26T15:27:15;14.70;99.90
22321;DHT22;11328;53.928;18.522;2022-10-26T15:29:45;14.70;99.90
22321;DHT22;11328;53.928;18.522;2022-10-26T15:32:30;14.50;99.90
22321;DHT22;11328;53.928;18.522;2022-10-26T15:35:14;14.50;99.90
22321;DHT22;11328;53.928;18.522;2022-10-26T15:37:50;14.40;99.90
22321;DHT22;11328;53.928;18.522;2022-10-26T15:40:19;14.30;99.90
22321;DHT22;11328;53.928;18.522;2022-10-26T15:42:50;14.30;99.90
22321;DHT22;11328;53.928;18.522;2022-10-26T15:45:24;14.20;99.90
22321;DHT22;11328;53.928;18.522;2022-10-26T15:47:56;14.10;99.90
22321;DHT22;11328;53.928;18.522;2022-10-26T15:50:26;14.10;99.90
22321;DHT22;11328;53.928;18.522;2022-10-26T15:53:11;14.10;99.90
22321;DHT22;11328;53.928;18.522;2022-10-26T15:55:43;14.10;99.90
22321;DHT22;11328;53.928;18.522;2022-10-26T15:58:10;14.00;99.90
22321;DHT22;11328;53.928;18.522;2022-10-26T16:00:37;13.90;99.90
22321;DHT22;11328;53.928;18.522;2022-10-26T16:03:04;13.90;99.90
22321;DHT22;11328;53.928;18.522;2022-10-26T16:05:31;13.90;99.90
22321;DHT22;11328;53.928;18.522;2022-10-26T16:07:58;13.90;99.90
22321;DHT22;11328;53.928;18.522;2022-10-26T16:10:26;13.80;99.90
22321;DHT22;11328;53.928;18.522;2022-10-26T16:12:53;13.80;99.90
22321;DHT22;11328;53.928;18.522;2022-10-26T16:27:43;13.70;99.90
22321;DHT22;11328;53.928;18.522;2022-10-26T16:30:12;14.00;99.90
22321;DHT22;11328;53.928;18.522;2022-10-26T16:32:40;13.60;99.90
22321;DHT22;11328;53.928;18.522;2022-10-26T16:35:09;13.40;99.90
22321;DHT22;11328;53.928;18.522;2022-10-26T16:37:37;13.20;99.90
22321;DHT22;11328;53.928;18.522;2022-10-26T16:40:06;13.10;99.90
22321;DHT22;11328;53.928;18.522;2022-10-26T16:42:34;13.00;99.90
22321;DHT22;11328;53.928;18.522;2022-10-26T16:45:01;13.00;99.90
22321;DHT22;11328;53.928;18.522;2022-10-26T16:47:31;12.90;99.90
22321;DHT22;11328;53.928;18.522;2022-10-26T16:50:03;12.90;99.90
22321;DHT22;11328;53.928;18.522;2022-10-26T16:52:33;12.80;99.90
22321;DHT22;11328;53.928;18.522;2022-10-26T16:55:01;12.70;99.90
22321;DHT22;11328;53.928;18.522;2022-10-26T16:57:29;12.60;99.90
22321;DHT22;11328;53.928;18.522;2022-10-26T16:59:56;12.60;99.90
22321;DHT22;11328;53.928;18.522;2022-10-26T17:02:24;12.60;99.90
22321;DHT22;11328;53.928;18.522;2022-10-26T17:04:51;12.60;99.90
22321;DHT22;11328;53.928;18.522;2022-10-26T17:07:18;12.50;99.90
22321;DHT22;11328;53.928;18.522;2022-10-26T17:09:48;12.50;99.90
22321;DHT22;11328;53.928;18.522;2022-10-26T17:12:15;12.40;99.90
22321;DHT22;11328;53.928;18.522;2022-10-26T17:14:42;12.40;99.90
22321;DHT22;11328;53.928;18.522;2022-10-26T17:17:09;12.30;99.90
22321;DHT22;11328;53.928;18.522;2022-10-26T17:19:36;12.20;99.90
22321;DHT22;11328;53.928;18.522;2022-10-26T17:22:03;12.10;99.90
22321;DHT22;11328;53.928;18.522;2022-10-26T17:24:34;12.00;99.90
22321;DHT22;11328;53.928;18.522;2022-10-26T17:27:01;12.00;99.90
22321;DHT22;11328;53.928;18.522;2022-10-26T17:29:31;11.90;99.90
22321;DHT22;11328;53.928;18.522;2022-10-26T17:31:58;11.90;99.90
22321;DHT22;11328;53.928;18.522;2022-10-26T17:34:25;11.90;99.90
22321;DHT22;11328;53.928;18.522;2022-10-26T17:36:52;11.90;99.90
22321;DHT22;11328;53.928;18.522;2022-10-26T17:39:19;11.90;99.90
22321;DHT22;11328;53.928;18.522;2022-10-26T17:41:46;11.90;99.90
22321;DHT22;11328;53.928;18.522;2022-10-26T17:44:13;11.80;99.90
22321;DHT22;11328;53.928;18.522;2022-10-26T17:46:41;11.90;99.90
22321;DHT22;11328;53.928;18.522;2022-10-26T17:49:08;11.90;99.90
22321;DHT22;11328;53.928;18.522;2022-10-26T17:51:35;11.80;99.90
22321;DHT22;11328;53.928;18.522;2022-10-26T17:54:02;11.90;99.90
22321;DHT22;11328;53.928;18.522;2022-10-26T17:56:31;11.90;99.90
22321;DHT22;11328;53.928;18.522;2022-10-26T17:59:01;11.90;99.90
22321;DHT22;11328;53.928;18.522;2022-10-26T18:01:30;11.90;99.90
22321;DHT22;11328;53.928;18.522;2022-10-26T18:03:58;11.90;99.90
22321;DHT22;11328;53.928;18.522;2022-10-26T18:06:26;11.80;99.90
22321;DHT22;11328;53.928;18.522;2022-10-26T18:08:55;11.70;99.90
22321;DHT22;11328;53.928;18.522;2022-10-26T18:11:23;11.60;99.90
22321;DHT22;11328;53.928;18.522;2022-10-26T18:13:53;11.50;99.90